sensor_id;sensor_type;location;lat;lon;timestamp;P1;durP1;ratioP1;P2;durP2;ratioP2
11620;SDS011;5866;49.094;11.900;2022-09-09T00:00:37;66.28;;;62.10;;
11620;SDS011;5866;49.094;11.900;2022-09-09T00:03:10;68.25;;;63.88;;
11620;SDS011;5866;49.094;11.900;2022-09-09T00:05:44;114.53;;;107.50;;
11620;SDS011;5866;49.094;11.900;2022-09-09T00:08:25;82.03;;;76.68;;
11620;SDS011;5866;49.094;11.900;2022-09-09T00:11:05;103.85;;;97.50;;
11620;SDS011;5866;49.094;11.900;2022-09-09T00:13:34;33.22;;;30.85;;
11620;SDS011;5866;49.094;11.900;2022-09-09T00:16:07;33.85;;;31.20;;
11620;SDS011;5866;49.094;11.900;2022-09-09T00:18:49;30.88;;;28.48;;
11620;SDS011;5866;49.094;11.900;2022-09-09T00:21:23;32.28;;;29.85;;
11620;SDS011;5866;49.094;11.900;2022-09-09T00:23:58;65.82;;;61.28;;
11620;SDS011;5866;49.094;11.900;2022-09-09T00:26:30;107.72;;;101.10;;
11620;SDS011;5866;49.094;11.900;2022-09-09T00:29:05;86.38;;;80.82;;
11620;SDS011;5866;49.094;11.900;2022-09-09T00:31:41;94.75;;;88.53;;
11620;SDS011;5866;49.094;11.900;2022-09-09T00:34:11;123.47;;;115.85;;
11620;SDS011;5866;49.094;11.900;2022-09-09T00:36:40;91.53;;;85.22;;
11620;SDS011;5866;49.094;11.900;2022-09-09T00:39:12;99.70;;;91.97;;
11620;SDS011;5866;49.094;11.900;2022-09-09T00:41:49;78.40;;;71.93;;
11620;SDS011;5866;49.094;11.900;2022-09-09T00:44:36;107.82;;;99.40;;
11620;SDS011;5866;49.094;11.900;2022-09-09T00:47:12;72.60;;;65.47;;
11620;SDS011;5866;49.094;11.900;2022-09-09T00:49:57;70.95;;;62.70;;
11620;SDS011;5866;49.094;11.900;2022-09-09T00:52:32;95.57;;;86.28;;
11620;SDS011;5866;49.094;11.900;2022-09-09T00:55:08;102.05;;;94.32;;
11620;SDS011;5866;49.094;11.900;2022-09-09T00:57:45;63.35;;;56.80;;
11620;SDS011;5866;49.094;11.900;2022-09-09T01:00:22;93.72;;;74.10;;
11620;SDS011;5866;49.094;11.900;2022-09-09T01:02:57;112.15;;;102.28;;
11620;SDS011;5866;49.094;11.900;2022-09-09T01:05:41;87.57;;;68.40;;
11620;SDS011;5866;49.094;11.900;2022-09-09T01:08:17;151.25;;;81.38;;
11620;SDS011;5866;49.094;11.900;2022-09-09T01:10:59;394.13;;;116.75;;
11620;SDS011;5866;49.094;11.900;2022-09-09T01:13:29;404.23;;;100.20;;
11620;SDS011;5866;49.094;11.900;2022-09-09T01:16:00;424.80;;;124.55;;
11620;SDS011;5866;49.094;11.900;2022-09-09T01:18:31;496.70;;;107.32;;
11620;SDS011;5866;49.094;11.900;2022-09-09T01:21:04;341.83;;;100.60;;
11620;SDS011;5866;49.094;11.900;2022-09-09T01:23:46;434.58;;;110.47;;
11620;SDS011;5866;49.094;11.900;2022-09-09T01:26:29;371.50;;;88.82;;
11620;SDS011;5866;49.094;11.900;2022-09-09T01:28:59;383.13;;;99.13;;
11620;SDS011;5866;49.094;11.900;2022-09-09T01:31:27;459.58;;;118.65;;
11620;SDS011;5866;49.094;11.900;2022-09-09T01:33:58;378.67;;;115.22;;
11620;SDS011;5866;49.094;11.900;2022-09-09T01:36:27;384.10;;;72.47;;
11620;SDS011;5866;49.094;11.900;2022-09-09T01:39:00;287.92;;;60.88;;
11620;SDS011;5866;49.094;11.900;2022-09-09T01:41:30;313.25;;;62.65;;
11620;SDS011;5866;49.094;11.900;2022-09-09T01:43:57;316.02;;;62.28;;
11620;SDS011;5866;49.094;11.900;2022-09-09T01:46:25;249.45;;;60.30;;
11620;SDS011;5866;49.094;11.900;2022-09-09T01:48:56;224.13;;;62.08;;
11620;SDS011;5866;49.094;11.900;2022-09-09T01:51:26;295.92;;;59.90;;
11620;SDS011;5866;49.094;11.900;2022-09-09T01:53:54;267.20;;;65.28;;
11620;SDS011;5866;49.094;11.900;2022-09-09T01:56:25;202.43;;;63.58;;
11620;SDS011;5866;49.094;11.900;2022-09-09T01:59:08;180.60;;;65.93;;
11620;SDS011;5866;49.094;11.900;2022-09-09T02:01:54;262.15;;;85.90;;
11620;SDS011;5866;49.094;11.900;2022-09-09T02:04:36;170.85;;;66.35;;
11620;SDS011;5866;49.094;11.900;2022-09-09T02:07:06;200.32;;;44.63;;
11620;SDS011;5866;49.094;11.900;2022-09-09T02:09:47;157.35;;;42.63;;
11620;SDS011;5866;49.094;11.900;2022-09-09T02:12:23;131.43;;;38.65;;
11620;SDS011;5866;49.094;11.900;2022-09-09T02:14:55;170.38;;;47.65;;
11620;SDS011;5866;49.094;11.900;2022-09-09T02:17:28;109.95;;;40.60;;
11620;SDS011;5866;49.094;11.900;2022-09-09T02:20:02;128.65;;;48.30;;
11620;SDS011;5866;49.094;11.900;2022-09-09T02:22:34;106.05;;;43.75;;
11620;SDS011;5866;49.094;11.900;2022-09-09T02:25:06;117.65;;;44.20;;
11620;SDS011;5866;49.094;11.900;2022-09-09T02:27:39;103.43;;;60.25;;
11620;SDS011;5866;49.094;11.900;2022-09-09T02:30:08;107.85;;;44.90;;
11620;SDS011;5866;49.094;11.900;2022-09-09T02:32:37;167.20;;;57.13;;
11620;SDS011;5866;49.094;11.900;2022-09-09T02:35:08;127.85;;;46.80;;
11620;SDS011;5866;49.094;11.900;2022-09-09T02:37:41;144.05;;;59.85;;
11620;SDS011;5866;49.094;11.900;2022-09-09T02:40:12;149.27;;;50.47;;
11620;SDS011;5866;49.094;11.900;2022-09-09T02:42:44;252.35;;;62.60;;
11620;SDS011;5866;49.094;11.900;2022-09-09T02:45:14;166.63;;;63.75;;
11620;SDS011;5866;49.094;11.900;2022-09-09T02:47:44;168.30;;;61.15;;
11620;SDS011;5866;49.094;11.900;2022-09-09T02:50:19;244.40;;;66.57;;
11620;SDS011;5866;49.094;11.900;2022-09-09T02:52:53;174.40;;;67.18;;
11620;SDS011;5866;49.094;11.900;2022-09-09T02:55:32;214.38;;;60.90;;
11620;SDS011;5866;49.094;11.900;2022-09-09T02:58:07;167.23;;;47.60;;
11620;SDS011;5866;49.094;11.900;2022-09-09T03:00:37;188.15;;;52.90;;
11620;SDS011;5866;49.094;11.900;2022-09-09T03:03:06;134.43;;;46.42;;
11620;SDS011;5866;49.094;11.900;2022-09-09T03:05:35;189.20;;;68.00;;
11620;SDS011;5866;49.094;11.900;2022-09-09T03:08:03;163.02;;;51.97;;
11620;SDS011;5866;49.094;11.900;2022-09-09T03:10:32;173.25;;;77.00;;
11620;SDS011;5866;49.094;11.900;2022-09-09T03:13:00;189.68;;;48.88;;
11620;SDS011;5866;49.094;11.900;2022-09-09T03:15:29;149.30;;;52.65;;
11620;SDS011;5866;49.094;11.900;2022-09-09T03:17:57;185.05;;;69.60;;
11620;SDS011;5866;49.094;11.900;2022-09-09T03:20:26;188.68;;;51.15;;
11620;SDS011;5866;49.094;11.900;2022-09-09T03:22:55;169.15;;;62.50;;
11620;SDS011;5866;49.094;11.900;2022-09-09T03:25:23;178.98;;;49.40;;
11620;SDS011;5866;49.094;11.900;2022-09-09T03:27:52;189.13;;;64.55;;
11620;SDS011;5866;49.094;11.900;2022-09-09T03:30:20;236.70;;;59.00;;
11620;SDS011;5866;49.094;11.900;2022-09-09T03:32:50;228.88;;;66.30;;
11620;SDS011;5866;49.094;11.900;2022-09-09T03:35:18;184.38;;;44.47;;
11620;SDS011;5866;49.094;11.900;2022-09-09T03:37:46;192.23;;;66.30;;
11620;SDS011;5866;49.094;11.900;2022-09-09T03:40:14;265.88;;;65.95;;
11620;SDS011;5866;49.094;11.900;2022-09-09T03:42:42;196.30;;;66.78;;
11620;SDS011;5866;49.094;11.900;2022-09-09T03:45:09;261.58;;;71.57;;
11620;SDS011;5866;49.094;11.900;2022-09-09T03:47:37;215.73;;;68.10;;
11620;SDS011;5866;49.094;11.900;2022-09-09T03:50:06;355.23;;;79.15;;
11620;SDS011;5866;49.094;11.900;2022-09-09T03:52:35;412.50;;;84.22;;
11620;SDS011;5866;49.094;11.900;2022-09-09T03:55:03;291.90;;;74.55;;
11620;SDS011;5866;49.094;11.900;2022-09-09T03:57:31;414.40;;;106.32;;
11620;SDS011;5866;49.094;11.900;2022-09-09T04:00:01;391.77;;;67.97;;
11620;SDS011;5866;49.094;11.900;2022-09-09T04:02:29;356.20;;;71.43;;
11620;SDS011;5866;49.094;11.900;2022-09-09T04:04:57;313.83;;;63.25;;
11620;SDS011;5866;49.094;11.900;2022-09-09T04:07:27;311.20;;;73.07;;
11620;SDS011;5866;49.094;11.900;2022-09-09T04:09:54;374.90;;;80.85;;
11620;SDS011;5866;49.094;11.900;2022-09-09T04:12:22;375.83;;;72.03;;
11620;SDS011;5866;49.094;11.900;2022-09-09T04:14:49;420.35;;;70.22;;
11620;SDS011;5866;49.094;11.900;2022-09-09T04:17:17;418.90;;;69.30;;
11620;SDS011;5866;49.094;11.900;2022-09-09T04:19:44;282.95;;;65.05;;
11620;SDS011;5866;49.094;11.900;2022-09-09T04:22:12;315.15;;;68.65;;
11620;SDS011;5866;49.094;11.900;2022-09-09T04:24:41;348.15;;;56.88;;
11620;SDS011;5866;49.094;11.900;2022-09-09T04:27:14;349.35;;;60.78;;
11620;SDS011;5866;49.094;11.900;2022-09-09T04:29:41;345.58;;;59.65;;
11620;SDS011;5866;49.094;11.900;2022-09-09T04:32:08;247.88;;;59.70;;
11620;SDS011;5866;49.094;11.900;2022-09-09T04:34:36;246.02;;;63.60;;
11620;SDS011;5866;49.094;11.900;2022-09-09T04:37:03;342.60;;;82.10;;
11620;SDS011;5866;49.094;11.900;2022-09-09T04:39:31;329.55;;;80.50;;
11620;SDS011;5866;49.094;11.900;2022-09-09T04:42:00;274.88;;;82.28;;
11620;SDS011;5866;49.094;11.900;2022-09-09T04:44:28;285.52;;;71.43;;
11620;SDS011;5866;49.094;11.900;2022-09-09T04:46:56;329.10;;;86.57;;
11620;SDS011;5866;49.094;11.900;2022-09-09T04:49:23;323.77;;;82.55;;
11620;SDS011;5866;49.094;11.900;2022-09-09T04:51:52;350.88;;;95.78;;
11620;SDS011;5866;49.094;11.900;2022-09-09T04:54:19;265.58;;;79.75;;
11620;SDS011;5866;49.094;11.900;2022-09-09T04:56:47;360.23;;;77.38;;
11620;SDS011;5866;49.094;11.900;2022-09-09T04:59:18;322.73;;;63.45;;
11620;SDS011;5866;49.094;11.900;2022-09-09T05:01:45;281.33;;;81.68;;
11620;SDS011;5866;49.094;11.900;2022-09-09T05:04:13;287.17;;;60.58;;
11620;SDS011;5866;49.094;11.900;2022-09-09T05:06:41;317.17;;;86.43;;
11620;SDS011;5866;49.094;11.900;2022-09-09T05:09:08;341.40;;;74.40;;
11620;SDS011;5866;49.094;11.900;2022-09-09T05:11:36;362.75;;;80.35;;
11620;SDS011;5866;49.094;11.900;2022-09-09T05:14:04;367.65;;;92.75;;
11620;SDS011;5866;49.094;11.900;2022-09-09T05:16:33;272.90;;;88.97;;
11620;SDS011;5866;49.094;11.900;2022-09-09T05:19:00;331.02;;;91.25;;
11620;SDS011;5866;49.094;11.900;2022-09-09T05:21:29;253.90;;;64.38;;
11620;SDS011;5866;49.094;11.900;2022-09-09T05:23:57;172.43;;;70.25;;
11620;SDS011;5866;49.094;11.900;2022-09-09T05:26:26;293.73;;;85.70;;
11620;SDS011;5866;49.094;11.900;2022-09-09T05:28:55;301.88;;;89.93;;
11620;SDS011;5866;49.094;11.900;2022-09-09T05:31:23;186.43;;;84.30;;
11620;SDS011;5866;49.094;11.900;2022-09-09T05:33:55;174.32;;;76.25;;
11620;SDS011;5866;49.094;11.900;2022-09-09T05:36:22;130.65;;;84.55;;
11620;SDS011;5866;49.094;11.900;2022-09-09T05:38:50;161.20;;;87.03;;
11620;SDS011;5866;49.094;11.900;2022-09-09T05:41:19;108.82;;;85.80;;
11620;SDS011;5866;49.094;11.900;2022-09-09T05:43:49;126.15;;;65.78;;
11620;SDS011;5866;49.094;11.900;2022-09-09T05:46:17;126.78;;;66.45;;
11620;SDS011;5866;49.094;11.900;2022-09-09T05:48:46;138.50;;;71.82;;
11620;SDS011;5866;49.094;11.900;2022-09-09T05:51:18;140.77;;;79.88;;
11620;SDS011;5866;49.094;11.900;2022-09-09T05:53:48;160.25;;;87.53;;
11620;SDS011;5866;49.094;11.900;2022-09-09T05:56:17;89.40;;;56.63;;
11620;SDS011;5866;49.094;11.900;2022-09-09T05:58:46;98.18;;;77.25;;
11620;SDS011;5866;49.094;11.900;2022-09-09T06:01:15;131.40;;;71.68;;
11620;SDS011;5866;49.094;11.900;2022-09-09T06:03:44;149.25;;;77.45;;
11620;SDS011;5866;49.094;11.900;2022-09-09T06:06:14;120.30;;;77.63;;
11620;SDS011;5866;49.094;11.900;2022-09-09T06:08:44;147.32;;;77.05;;
11620;SDS011;5866;49.094;11.900;2022-09-09T06:11:13;125.10;;;88.28;;
11620;SDS011;5866;49.094;11.900;2022-09-09T06:13:42;117.13;;;96.15;;
11620;SDS011;5866;49.094;11.900;2022-09-09T06:16:11;97.43;;;76.38;;
11620;SDS011;5866;49.094;11.900;2022-09-09T06:18:39;146.10;;;92.85;;
11620;SDS011;5866;49.094;11.900;2022-09-09T06:21:09;101.97;;;76.60;;
11620;SDS011;5866;49.094;11.900;2022-09-09T06:23:44;104.70;;;74.85;;
11620;SDS011;5866;49.094;11.900;2022-09-09T06:26:13;151.13;;;77.47;;
11620;SDS011;5866;49.094;11.900;2022-09-09T06:28:43;165.88;;;75.88;;
11620;SDS011;5866;49.094;11.900;2022-09-09T06:31:12;220.10;;;82.50;;
11620;SDS011;5866;49.094;11.900;2022-09-09T06:33:41;98.28;;;73.63;;
11620;SDS011;5866;49.094;11.900;2022-09-09T06:36:10;92.78;;;72.85;;
11620;SDS011;5866;49.094;11.900;2022-09-09T06:38:39;82.65;;;64.90;;
11620;SDS011;5866;49.094;11.900;2022-09-09T06:41:08;94.20;;;85.45;;
11620;SDS011;5866;49.094;11.900;2022-09-09T06:43:37;66.55;;;60.05;;
11620;SDS011;5866;49.094;11.900;2022-09-09T06:46:05;69.75;;;63.45;;
11620;SDS011;5866;49.094;11.900;2022-09-09T06:48:34;56.92;;;51.85;;
11620;SDS011;5866;49.094;11.900;2022-09-09T06:51:03;77.43;;;71.63;;
11620;SDS011;5866;49.094;11.900;2022-09-09T06:53:32;66.28;;;61.15;;
11620;SDS011;5866;49.094;11.900;2022-09-09T06:56:00;56.80;;;52.80;;
11620;SDS011;5866;49.094;11.900;2022-09-09T06:58:30;46.25;;;43.22;;
11620;SDS011;5866;49.094;11.900;2022-09-09T07:01:02;32.40;;;30.20;;
11620;SDS011;5866;49.094;11.900;2022-09-09T07:03:30;29.80;;;27.83;;
11620;SDS011;5866;49.094;11.900;2022-09-09T07:05:58;24.48;;;22.77;;
11620;SDS011;5866;49.094;11.900;2022-09-09T07:08:26;30.25;;;28.35;;
11620;SDS011;5866;49.094;11.900;2022-09-09T07:10:54;27.23;;;25.58;;
11620;SDS011;5866;49.094;11.900;2022-09-09T07:13:38;22.60;;;21.17;;
11620;SDS011;5866;49.094;11.900;2022-09-09T07:16:06;24.65;;;23.15;;
11620;SDS011;5866;49.094;11.900;2022-09-09T07:18:35;23.23;;;21.75;;
11620;SDS011;5866;49.094;11.900;2022-09-09T07:21:03;23.15;;;21.67;;
11620;SDS011;5866;49.094;11.900;2022-09-09T07:23:32;19.35;;;18.08;;
11620;SDS011;5866;49.094;11.900;2022-09-09T07:26:01;19.95;;;18.67;;
11620;SDS011;5866;49.094;11.900;2022-09-09T07:28:30;23.13;;;21.55;;
11620;SDS011;5866;49.094;11.900;2022-09-09T07:30:59;21.77;;;20.35;;
11620;SDS011;5866;49.094;11.900;2022-09-09T07:33:29;24.48;;;22.83;;
11620;SDS011;5866;49.094;11.900;2022-09-09T07:36:02;25.83;;;24.13;;
11620;SDS011;5866;49.094;11.900;2022-09-09T07:38:31;28.27;;;26.30;;
11620;SDS011;5866;49.094;11.900;2022-09-09T07:41:03;27.05;;;25.15;;
11620;SDS011;5866;49.094;11.900;2022-09-09T07:43:32;32.92;;;30.73;;
11620;SDS011;5866;49.094;11.900;2022-09-09T07:46:01;35.35;;;33.15;;
11620;SDS011;5866;49.094;11.900;2022-09-09T07:48:29;43.28;;;40.60;;
11620;SDS011;5866;49.094;11.900;2022-09-09T07:51:06;43.88;;;41.22;;
11620;SDS011;5866;49.094;11.900;2022-09-09T07:53:36;42.97;;;40.38;;
11620;SDS011;5866;49.094;11.900;2022-09-09T07:56:05;38.13;;;35.83;;
11620;SDS011;5866;49.094;11.900;2022-09-09T07:58:35;42.10;;;39.60;;
11620;SDS011;5866;49.094;11.900;2022-09-09T08:01:09;41.53;;;39.13;;
11620;SDS011;5866;49.094;11.900;2022-09-09T08:03:38;41.67;;;39.17;;
11620;SDS011;5866;49.094;11.900;2022-09-09T08:06:06;39.92;;;37.63;;
11620;SDS011;5866;49.094;11.900;2022-09-09T08:08:36;41.15;;;38.75;;
11620;SDS011;5866;49.094;11.900;2022-09-09T08:11:05;42.60;;;40.10;;
11620;SDS011;5866;49.094;11.900;2022-09-09T08:13:35;38.95;;;36.58;;
11620;SDS011;5866;49.094;11.900;2022-09-09T08:16:04;38.90;;;36.47;;
11620;SDS011;5866;49.094;11.900;2022-09-09T08:18:34;42.78;;;40.17;;
11620;SDS011;5866;49.094;11.900;2022-09-09T08:21:06;42.78;;;40.28;;
11620;SDS011;5866;49.094;11.900;2022-09-09T08:23:35;41.53;;;39.13;;
11620;SDS011;5866;49.094;11.900;2022-09-09T08:26:04;42.67;;;40.08;;
11620;SDS011;5866;49.094;11.900;2022-09-09T08:28:32;42.83;;;40.20;;
11620;SDS011;5866;49.094;11.900;2022-09-09T08:31:07;45.00;;;42.25;;
11620;SDS011;5866;49.094;11.900;2022-09-09T08:33:38;43.35;;;40.95;;
11620;SDS011;5866;49.094;11.900;2022-09-09T08:36:08;44.67;;;41.95;;
11620;SDS011;5866;49.094;11.900;2022-09-09T08:38:37;26.17;;;24.73;;
11620;SDS011;5866;49.094;11.900;2022-09-09T08:41:16;22.77;;;21.38;;
11620;SDS011;5866;49.094;11.900;2022-09-09T08:44:02;23.60;;;22.20;;
11620;SDS011;5866;49.094;11.900;2022-09-09T08:46:36;17.80;;;16.60;;
11620;SDS011;5866;49.094;11.900;2022-09-09T08:49:20;22.02;;;20.73;;
11620;SDS011;5866;49.094;11.900;2022-09-09T08:51:58;15.05;;;13.98;;
11620;SDS011;5866;49.094;11.900;2022-09-09T08:54:27;9.23;;;8.38;;
11620;SDS011;5866;49.094;11.900;2022-09-09T08:57:18;9.32;;;8.57;;
11620;SDS011;5866;49.094;11.900;2022-09-09T08:59:52;10.40;;;9.70;;
11620;SDS011;5866;49.094;11.900;2022-09-09T09:02:24;8.13;;;7.40;;
11620;SDS011;5866;49.094;11.900;2022-09-09T09:05:01;9.00;;;8.35;;
11620;SDS011;5866;49.094;11.900;2022-09-09T09:07:42;8.30;;;7.70;;
11620;SDS011;5866;49.094;11.900;2022-09-09T09:10:20;8.57;;;8.07;;
11620;SDS011;5866;49.094;11.900;2022-09-09T09:13:10;9.82;;;9.15;;
11620;SDS011;5866;49.094;11.900;2022-09-09T09:15:43;9.13;;;8.50;;
11620;SDS011;5866;49.094;11.900;2022-09-09T09:18:14;8.57;;;7.97;;
11620;SDS011;5866;49.094;11.900;2022-09-09T09:20:47;12.35;;;11.30;;
11620;SDS011;5866;49.094;11.900;2022-09-09T09:23:21;8.85;;;8.23;;
11620;SDS011;5866;49.094;11.900;2022-09-09T09:25:52;10.23;;;9.50;;
11620;SDS011;5866;49.094;11.900;2022-09-09T09:28:25;8.32;;;7.72;;
11620;SDS011;5866;49.094;11.900;2022-09-09T09:30:56;7.88;;;7.20;;
11620;SDS011;5866;49.094;11.900;2022-09-09T09:33:27;13.50;;;12.48;;
11620;SDS011;5866;49.094;11.900;2022-09-09T09:36:04;10.02;;;9.35;;
11620;SDS011;5866;49.094;11.900;2022-09-09T09:38:34;8.05;;;7.55;;
11620;SDS011;5866;49.094;11.900;2022-09-09T09:41:30;19.15;;;18.05;;
11620;SDS011;5866;49.094;11.900;2022-09-09T09:43:58;13.45;;;12.65;;
11620;SDS011;5866;49.094;11.900;2022-09-09T09:46:27;10.40;;;9.70;;
11620;SDS011;5866;49.094;11.900;2022-09-09T09:48:59;15.52;;;14.45;;
11620;SDS011;5866;49.094;11.900;2022-09-09T09:51:30;20.40;;;19.15;;
11620;SDS011;5866;49.094;11.900;2022-09-09T09:56:53;11.88;;;11.13;;
11620;SDS011;5866;49.094;11.900;2022-09-09T09:59:22;21.13;;;20.00;;
11620;SDS011;5866;49.094;11.900;2022-09-09T10:02:13;18.73;;;17.67;;
11620;SDS011;5866;49.094;11.900;2022-09-09T10:04:43;6.90;;;6.50;;
11620;SDS011;5866;49.094;11.900;2022-09-09T10:07:13;5.75;;;5.25;;
11620;SDS011;5866;49.094;11.900;2022-09-09T10:09:45;20.35;;;19.15;;
11620;SDS011;5866;49.094;11.900;2022-09-09T10:12:19;17.45;;;16.45;;
11620;SDS011;5866;49.094;11.900;2022-09-09T10:14:58;8.70;;;8.10;;
11620;SDS011;5866;49.094;11.900;2022-09-09T10:17:33;16.33;;;15.38;;
11620;SDS011;5866;49.094;11.900;2022-09-09T10:20:15;12.80;;;12.00;;
11620;SDS011;5866;49.094;11.900;2022-09-09T10:22:52;12.15;;;11.55;;
11620;SDS011;5866;49.094;11.900;2022-09-09T10:25:30;19.88;;;18.85;;
11620;SDS011;5866;49.094;11.900;2022-09-09T10:28:10;20.90;;;19.77;;
11620;SDS011;5866;49.094;11.900;2022-09-09T10:30:56;26.02;;;24.63;;
11620;SDS011;5866;49.094;11.900;2022-09-09T10:33:31;31.17;;;29.48;;
11620;SDS011;5866;49.094;11.900;2022-09-09T10:36:07;15.20;;;14.32;;
11620;SDS011;5866;49.094;11.900;2022-09-09T10:38:41;21.35;;;20.15;;
11620;SDS011;5866;49.094;11.900;2022-09-09T10:41:24;22.35;;;21.10;;
11620;SDS011;5866;49.094;11.900;2022-09-09T10:44:13;17.60;;;16.70;;
11620;SDS011;5866;49.094;11.900;2022-09-09T10:46:52;25.98;;;24.58;;
11620;SDS011;5866;49.094;11.900;2022-09-09T10:49:43;30.77;;;29.13;;
11620;SDS011;5866;49.094;11.900;2022-09-09T10:52:28;24.38;;;23.02;;
11620;SDS011;5866;49.094;11.900;2022-09-09T10:55:07;23.25;;;22.00;;
11620;SDS011;5866;49.094;11.900;2022-09-09T10:57:39;15.07;;;14.23;;
11620;SDS011;5866;49.094;11.900;2022-09-09T11:00:14;22.65;;;21.45;;
11620;SDS011;5866;49.094;11.900;2022-09-09T11:02:44;19.75;;;18.60;;
11620;SDS011;5866;49.094;11.900;2022-09-09T11:05:16;15.95;;;15.13;;
11620;SDS011;5866;49.094;11.900;2022-09-09T11:07:47;18.48;;;17.38;;
11620;SDS011;5866;49.094;11.900;2022-09-09T11:10:22;20.45;;;19.38;;
11620;SDS011;5866;49.094;11.900;2022-09-09T11:12:55;19.65;;;18.23;;
11620;SDS011;5866;49.094;11.900;2022-09-09T11:15:28;18.63;;;17.65;;
11620;SDS011;5866;49.094;11.900;2022-09-09T11:17:59;31.15;;;29.35;;
11620;SDS011;5866;49.094;11.900;2022-09-09T11:20:29;17.75;;;16.73;;
11620;SDS011;5866;49.094;11.900;2022-09-09T11:22:58;26.02;;;24.50;;
11620;SDS011;5866;49.094;11.900;2022-09-09T11:25:31;16.63;;;15.73;;
11620;SDS011;5866;49.094;11.900;2022-09-09T11:28:06;22.98;;;21.73;;
11620;SDS011;5866;49.094;11.900;2022-09-09T11:30:47;17.67;;;16.73;;
11620;SDS011;5866;49.094;11.900;2022-09-09T11:33:33;22.75;;;21.55;;
11620;SDS011;5866;49.094;11.900;2022-09-09T11:36:24;16.42;;;15.48;;
11620;SDS011;5866;49.094;11.900;2022-09-09T11:39:10;19.27;;;18.15;;
11620;SDS011;5866;49.094;11.900;2022-09-09T11:42:15;10.43;;;9.85;;
11620;SDS011;5866;49.094;11.900;2022-09-09T11:44:46;13.98;;;13.18;;
11620;SDS011;5866;49.094;11.900;2022-09-09T11:47:19;12.88;;;12.20;;
11620;SDS011;5866;49.094;11.900;2022-09-09T11:49:50;15.38;;;14.60;;
11620;SDS011;5866;49.094;11.900;2022-09-09T11:52:20;11.43;;;10.73;;
11620;SDS011;5866;49.094;11.900;2022-09-09T11:54:51;16.80;;;15.85;;
11620;SDS011;5866;49.094;11.900;2022-09-09T11:57:29;17.67;;;16.65;;
11620;SDS011;5866;49.094;11.900;2022-09-09T12:00:02;20.35;;;19.23;;
11620;SDS011;5866;49.094;11.900;2022-09-09T12:02:30;19.25;;;18.23;;
11620;SDS011;5866;49.094;11.900;2022-09-09T12:04:59;17.83;;;16.95;;
11620;SDS011;5866;49.094;11.900;2022-09-09T12:07:33;16.23;;;15.32;;
11620;SDS011;5866;49.094;11.900;2022-09-09T12:10:05;15.63;;;14.82;;
11620;SDS011;5866;49.094;11.900;2022-09-09T12:12:50;22.27;;;21.05;;
11620;SDS011;5866;49.094;11.900;2022-09-09T12:15:20;21.67;;;20.45;;
11620;SDS011;5866;49.094;11.900;2022-09-09T12:17:52;18.42;;;17.35;;
11620;SDS011;5866;49.094;11.900;2022-09-09T12:20:30;22.35;;;20.98;;
11620;SDS011;5866;49.094;11.900;2022-09-09T12:23:06;15.13;;;14.30;;
11620;SDS011;5866;49.094;11.900;2022-09-09T12:25:48;24.02;;;22.70;;
11620;SDS011;5866;49.094;11.900;2022-09-09T12:28:26;15.50;;;14.52;;
11620;SDS011;5866;49.094;11.900;2022-09-09T12:31:09;12.90;;;12.18;;
11620;SDS011;5866;49.094;11.900;2022-09-09T12:33:44;20.40;;;19.33;;
11620;SDS011;5866;49.094;11.900;2022-09-09T12:36:14;20.85;;;19.73;;
11620;SDS011;5866;49.094;11.900;2022-09-09T12:38:44;21.17;;;19.75;;
11620;SDS011;5866;49.094;11.900;2022-09-09T12:41:19;20.80;;;19.55;;
11620;SDS011;5866;49.094;11.900;2022-09-09T12:43:49;18.02;;;16.95;;
11620;SDS011;5866;49.094;11.900;2022-09-09T12:46:26;18.00;;;16.90;;
11620;SDS011;5866;49.094;11.900;2022-09-09T12:49:02;23.40;;;22.10;;
11620;SDS011;5866;49.094;11.900;2022-09-09T12:51:31;19.30;;;18.23;;
11620;SDS011;5866;49.094;11.900;2022-09-09T12:54:00;16.40;;;15.55;;
11620;SDS011;5866;49.094;11.900;2022-09-09T12:56:28;15.25;;;14.43;;
11620;SDS011;5866;49.094;11.900;2022-09-09T12:58:59;12.95;;;12.25;;
11620;SDS011;5866;49.094;11.900;2022-09-09T13:01:28;14.85;;;14.05;;
11620;SDS011;5866;49.094;11.900;2022-09-09T13:03:57;15.05;;;14.23;;
11620;SDS011;5866;49.094;11.900;2022-09-09T13:06:26;12.15;;;11.43;;
11620;SDS011;5866;49.094;11.900;2022-09-09T13:08:56;17.38;;;16.38;;
11620;SDS011;5866;49.094;11.900;2022-09-09T13:11:26;11.38;;;10.77;;
11620;SDS011;5866;49.094;11.900;2022-09-09T13:13:59;15.43;;;14.63;;
11620;SDS011;5866;49.094;11.900;2022-09-09T13:16:27;22.10;;;20.80;;
11620;SDS011;5866;49.094;11.900;2022-09-09T13:18:58;15.68;;;14.73;;
11620;SDS011;5866;49.094;11.900;2022-09-09T13:21:31;14.80;;;14.00;;
11620;SDS011;5866;49.094;11.900;2022-09-09T13:24:00;16.90;;;15.98;;
11620;SDS011;5866;49.094;11.900;2022-09-09T13:26:30;20.88;;;19.73;;
11620;SDS011;5866;49.094;11.900;2022-09-09T13:29:13;14.18;;;13.40;;
11620;SDS011;5866;49.094;11.900;2022-09-09T13:31:44;9.95;;;9.35;;
11620;SDS011;5866;49.094;11.900;2022-09-09T13:34:12;8.85;;;8.10;;
11620;SDS011;5866;49.094;11.900;2022-09-09T13:36:41;9.27;;;8.60;;
11620;SDS011;5866;49.094;11.900;2022-09-09T13:39:12;12.68;;;11.77;;
11620;SDS011;5866;49.094;11.900;2022-09-09T13:41:43;12.95;;;12.05;;
11620;SDS011;5866;49.094;11.900;2022-09-09T13:44:17;13.40;;;12.57;;
11620;SDS011;5866;49.094;11.900;2022-09-09T13:46:59;12.88;;;11.98;;
11620;SDS011;5866;49.094;11.900;2022-09-09T13:49:35;14.18;;;13.25;;
11620;SDS011;5866;49.094;11.900;2022-09-09T13:52:04;10.13;;;9.52;;
11620;SDS011;5866;49.094;11.900;2022-09-09T13:54:33;8.50;;;7.80;;
11620;SDS011;5866;49.094;11.900;2022-09-09T13:57:01;11.43;;;10.55;;
11620;SDS011;5866;49.094;11.900;2022-09-09T13:59:31;8.85;;;8.15;;
11620;SDS011;5866;49.094;11.900;2022-09-09T14:02:20;9.88;;;9.30;;
11620;SDS011;5866;49.094;11.900;2022-09-09T14:04:49;11.52;;;10.52;;
11620;SDS011;5866;49.094;11.900;2022-09-09T14:07:21;8.55;;;7.95;;
11620;SDS011;5866;49.094;11.900;2022-09-09T14:09:49;9.90;;;9.30;;
11620;SDS011;5866;49.094;11.900;2022-09-09T14:12:17;8.95;;;8.35;;
11620;SDS011;5866;49.094;11.900;2022-09-09T14:14:47;8.32;;;7.75;;
11620;SDS011;5866;49.094;11.900;2022-09-09T14:17:15;7.57;;;6.97;;
11620;SDS011;5866;49.094;11.900;2022-09-09T14:19:43;8.52;;;7.85;;
11620;SDS011;5866;49.094;11.900;2022-09-09T14:22:11;8.57;;;7.80;;
11620;SDS011;5866;49.094;11.900;2022-09-09T14:24:38;7.45;;;6.85;;
11620;SDS011;5866;49.094;11.900;2022-09-09T14:27:06;6.82;;;6.43;;
11620;SDS011;5866;49.094;11.900;2022-09-09T14:29:34;7.75;;;7.15;;
11620;SDS011;5866;49.094;11.900;2022-09-09T14:32:03;6.78;;;6.18;;
11620;SDS011;5866;49.094;11.900;2022-09-09T14:34:37;9.05;;;8.52;;
11620;SDS011;5866;49.094;11.900;2022-09-09T14:37:05;10.50;;;9.80;;
11620;SDS011;5866;49.094;11.900;2022-09-09T14:39:32;10.07;;;9.48;;
11620;SDS011;5866;49.094;11.900;2022-09-09T14:42:00;8.85;;;8.15;;
11620;SDS011;5866;49.094;11.900;2022-09-09T14:44:28;10.27;;;9.68;;
11620;SDS011;5866;49.094;11.900;2022-09-09T14:46:55;9.07;;;8.48;;
11620;SDS011;5866;49.094;11.900;2022-09-09T14:49:25;6.60;;;6.20;;